Ninde, Virginia
Current Conditions -  °F | °C
As of 12:56 AM on Saturday 25 Oct 2014 (Local Time) from KNYG Reporting Station
Clear Clear  
Wind Chill:   Ceiling: Unl
Heat Index:   Visibility: 10mi
Dew Point:   Wind: 7mph
Humidity: 83%   Direction: 300°WNW
Pressure: 29.98"   Gusts: NA
Location:  38.27°N, 77.06°W
Report Text: KNYG 250456Z AUTO 30006KT 10SM CLR 09/06 A2998 RMK AO2 SLP154 T00890061 402060078 $
Loading
Personal Weather Stations






























Interactive Weather Map
Tropical Storm Tracking
New forecast layout! Learn more

10-Day Weather Forecast

Advertisements
Track Severe Weather on mobile